sensor_id;sensor_type;location;lat;lon;timestamp;pressure;altitude;pressure_sealevel;temperature;humidity
21236;BME280;10775;42.678;26.324;2023-01-29T00:01:54;98813.03;;;2.56;100.00
21236;BME280;10775;42.678;26.324;2023-01-29T00:04:20;98811.81;;;2.31;100.00
21236;BME280;10775;42.678;26.324;2023-01-29T00:06:46;98817.31;;;2.54;100.00
21236;BME280;10775;42.678;26.324;2023-01-29T00:09:12;98814.94;;;2.71;100.00
21236;BME280;10775;42.678;26.324;2023-01-29T00:11:38;98821.97;;;2.81;100.00
21236;BME280;10775;42.678;26.324;2023-01-29T00:14:05;98817.75;;;2.88;100.00
21236;BME280;10775;42.678;26.324;2023-01-29T00:16:31;98819.53;;;2.92;100.00
21236;BME280;10775;42.678;26.324;2023-01-29T00:18:56;98817.75;;;2.88;100.00
21236;BME280;10775;42.678;26.324;2023-01-29T00:21:22;98812.56;;;2.85;100.00
21236;BME280;10775;42.678;26.324;2023-01-29T00:23:48;98817.69;;;2.83;100.00
21236;BME280;10775;42.678;26.324;2023-01-29T00:26:14;98814.13;;;2.73;100.00
21236;BME280;10775;42.678;26.324;2023-01-29T00:28:40;98814.16;;;2.75;100.00
21236;BME280;10775;42.678;26.324;2023-01-29T00:31:18;98815.94;;;2.79;100.00
21236;BME280;10775;42.678;26.324;2023-01-29T00:33:44;98809.75;;;2.68;100.00
21236;BME280;10775;42.678;26.324;2023-01-29T00:36:11;98816.66;;;2.69;100.00
21236;BME280;10775;42.678;26.324;2023-01-29T00:38:37;98814.22;;;2.79;100.00
21236;BME280;10775;42.678;26.324;2023-01-29T00:41:07;98813.44;;;2.88;100.00
21236;BME280;10775;42.678;26.324;2023-01-29T00:43:51;98823.69;;;2.79;100.00
21236;BME280;10775;42.678;26.324;2023-01-29T00:46:35;98827.97;;;2.78;100.00
21236;BME280;10775;42.678;26.324;2023-01-29T00:49:01;98822.84;;;2.81;100.00
21236;BME280;10775;42.678;26.324;2023-01-29T00:51:26;98819.22;;;2.67;100.00
21236;BME280;10775;42.678;26.324;2023-01-29T00:53:52;98817.50;;;2.68;100.00
21236;BME280;10775;42.678;26.324;2023-01-29T00:56:26;98826.19;;;2.76;100.00
21236;BME280;10775;42.678;26.324;2023-01-29T00:58:52;98833.91;;;2.73;100.00
21236;BME280;10775;42.678;26.324;2023-01-29T01:01:19;98831.94;;;2.53;100.00
21236;BME280;10775;42.678;26.324;2023-01-29T01:04:04;98836.50;;;2.71;100.00
21236;BME280;10775;42.678;26.324;2023-01-29T01:06:29;98839.91;;;2.70;100.00
21236;BME280;10775;42.678;26.324;2023-01-29T01:08:55;98843.97;;;2.54;100.00
21236;BME280;10775;42.678;26.324;2023-01-29T01:11:39;98837.25;;;2.64;100.00
21236;BME280;10775;42.678;26.324;2023-01-29T01:14:04;98847.50;;;2.59;100.00
21236;BME280;10775;42.678;26.324;2023-01-29T01:16:30;98836.97;;;2.47;100.00
21236;BME280;10775;42.678;26.324;2023-01-29T01:18:56;98849.38;;;2.70;100.00
21236;BME280;10775;42.678;26.324;2023-01-29T01:21:21;98851.19;;;2.78;100.00
21236;BME280;10775;42.678;26.324;2023-01-29T01:23:47;98852.84;;;2.72;100.00
21236;BME280;10775;42.678;26.324;2023-01-29T01:26:12;98857.97;;;2.69;100.00
21236;BME280;10775;42.678;26.324;2023-01-29T01:28:38;98862.34;;;2.74;100.00
21236;BME280;10775;42.678;26.324;2023-01-29T01:31:11;98859.84;;;2.79;100.00
21236;BME280;10775;42.678;26.324;2023-01-29T01:33:37;98858.97;;;2.80;100.00
21236;BME280;10775;42.678;26.324;2023-01-29T01:36:04;98865.94;;;2.84;100.00
21236;BME280;10775;42.678;26.324;2023-01-29T01:38:33;98860.44;;;2.63;100.00
21236;BME280;10775;42.678;26.324;2023-01-29T01:40:59;98870.72;;;2.59;100.00
21236;BME280;10775;42.678;26.324;2023-01-29T01:43:24;98868.25;;;2.67;100.00
21236;BME280;10775;42.678;26.324;2023-01-29T01:45:50;98863.88;;;2.61;100.00
21236;BME280;10775;42.678;26.324;2023-01-29T01:48:21;98866.22;;;2.46;100.00
21236;BME280;10775;42.678;26.324;2023-01-29T01:53:20;98873.13;;;2.47;100.00
21236;BME280;10775;42.678;26.324;2023-01-29T01:55:54;98868.78;;;2.45;100.00
21236;BME280;10775;42.678;26.324;2023-01-29T01:58:32;98878.13;;;2.36;100.00
21236;BME280;10775;42.678;26.324;2023-01-29T02:00:59;98883.19;;;2.30;100.00
21236;BME280;10775;42.678;26.324;2023-01-29T02:03:27;98867.88;;;2.41;100.00
21236;BME280;10775;42.678;26.324;2023-01-29T02:06:13;98871.47;;;2.52;100.00
21236;BME280;10775;42.678;26.324;2023-01-29T02:09:08;98877.56;;;2.56;100.00
21236;BME280;10775;42.678;26.324;2023-01-29T02:11:53;98883.34;;;2.41;100.00
21236;BME280;10775;42.678;26.324;2023-01-29T02:14:19;98869.72;;;2.48;100.00
21236;BME280;10775;42.678;26.324;2023-01-29T02:16:45;98879.97;;;2.45;100.00
21236;BME280;10775;42.678;26.324;2023-01-29T02:19:38;98880.00;;;2.47;100.00
21236;BME280;10775;42.678;26.324;2023-01-29T02:25:38;98890.53;;;2.60;100.00
21236;BME280;10775;42.678;26.324;2023-01-29T02:30:55;98894.13;;;2.69;100.00
21236;BME280;10775;42.678;26.324;2023-01-29T02:41:47;98906.09;;;2.65;100.00
21236;BME280;10775;42.678;26.324;2023-01-29T02:44:36;98908.50;;;2.54;100.00
21236;BME280;10775;42.678;26.324;2023-01-29T02:49:55;98910.94;;;2.45;100.00
21236;BME280;10775;42.678;26.324;2023-01-29T02:52:36;98908.38;;;2.47;100.00
21236;BME280;10775;42.678;26.324;2023-01-29T02:55:11;98905.78;;;2.45;100.00
21236;BME280;10775;42.678;26.324;2023-01-29T02:57:42;98907.50;;;2.45;100.00
21236;BME280;10775;42.678;26.324;2023-01-29T03:00:25;98911.75;;;2.43;100.00
21236;BME280;10775;42.678;26.324;2023-01-29T03:03:08;98909.22;;;2.44;100.00
21236;BME280;10775;42.678;26.324;2023-01-29T03:08:11;98920.94;;;2.25;100.00
21236;BME280;10775;42.678;26.324;2023-01-29T03:10:51;98923.41;;;2.17;100.00
21236;BME280;10775;42.678;26.324;2023-01-29T03:13:21;98923.59;;;2.28;100.00
21236;BME280;10775;42.678;26.324;2023-01-29T03:15:55;98920.28;;;2.35;100.00
21236;BME280;10775;42.678;26.324;2023-01-29T03:18:30;98918.28;;;2.21;100.00
21236;BME280;10775;42.678;26.324;2023-01-29T03:21:02;98917.44;;;2.22;100.00
21236;BME280;10775;42.678;26.324;2023-01-29T03:23:49;98926.25;;;2.33;100.00
21236;BME280;10775;42.678;26.324;2023-01-29T03:26:34;98922.53;;;2.18;100.00
21236;BME280;10775;42.678;26.324;2023-01-29T03:29:19;98923.28;;;2.10;100.00
21236;BME280;10775;42.678;26.324;2023-01-29T03:32:05;98927.19;;;1.89;100.00
21236;BME280;10775;42.678;26.324;2023-01-29T03:34:45;98929.94;;;1.99;100.00
21236;BME280;10775;42.678;26.324;2023-01-29T03:37:24;98929.44;;;2.20;100.00
21236;BME280;10775;42.678;26.324;2023-01-29T03:39:51;98929.47;;;2.21;100.00
21236;BME280;10775;42.678;26.324;2023-01-29T03:42:26;98934.81;;;2.30;100.00
21236;BME280;10775;42.678;26.324;2023-01-29T03:45:06;98928.84;;;2.34;100.00
21236;BME280;10775;42.678;26.324;2023-01-29T03:47:47;98938.41;;;2.42;100.00
21236;BME280;10775;42.678;26.324;2023-01-29T03:52:52;98933.69;;;2.16;100.00
21236;BME280;10775;42.678;26.324;2023-01-29T03:58:15;98942.16;;;2.09;100.00
21236;BME280;10775;42.678;26.324;2023-01-29T04:00:52;98940.28;;;2.02;100.00
21236;BME280;10775;42.678;26.324;2023-01-29T04:03:32;98941.19;;;2.02;100.00
21236;BME280;10775;42.678;26.324;2023-01-29T04:06:03;98948.25;;;2.14;100.00
21236;BME280;10775;42.678;26.324;2023-01-29T04:08:39;98941.47;;;2.17;100.00
21236;BME280;10775;42.678;26.324;2023-01-29T04:11:13;98944.09;;;2.22;100.00
21236;BME280;10775;42.678;26.324;2023-01-29T04:13:39;98945.13;;;2.32;100.00
21236;BME280;10775;42.678;26.324;2023-01-29T04:16:09;98945.03;;;2.26;100.00
21236;BME280;10775;42.678;26.324;2023-01-29T04:18:37;98947.63;;;2.26;100.00
21236;BME280;10775;42.678;26.324;2023-01-29T04:21:04;98947.63;;;2.26;100.00
21236;BME280;10775;42.678;26.324;2023-01-29T04:23:31;98952.88;;;2.32;100.00
21236;BME280;10775;42.678;26.324;2023-01-29T04:31:56;98958.72;;;2.22;100.00
21236;BME280;10775;42.678;26.324;2023-01-29T04:34:26;98962.16;;;2.22;100.00
21236;BME280;10775;42.678;26.324;2023-01-29T04:37:13;98962.91;;;2.16;100.00
21236;BME280;10775;42.678;26.324;2023-01-29T04:45:03;98961.09;;;2.11;100.00
21236;BME280;10775;42.678;26.324;2023-01-29T04:47:40;98964.63;;;2.16;100.00
21236;BME280;10775;42.678;26.324;2023-01-29T04:50:36;98968.09;;;2.16;100.00
21236;BME280;10775;42.678;26.324;2023-01-29T04:53:12;98974.91;;;2.14;100.00
21236;BME280;10775;42.678;26.324;2023-01-29T04:55:48;98972.28;;;2.11;100.00
21236;BME280;10775;42.678;26.324;2023-01-29T05:01:05;98978.50;;;2.21;100.00
21236;BME280;10775;42.678;26.324;2023-01-29T05:03:35;98972.47;;;2.21;100.00
21236;BME280;10775;42.678;26.324;2023-01-29T05:06:03;98978.50;;;2.21;100.00
21236;BME280;10775;42.678;26.324;2023-01-29T05:08:30;98987.03;;;2.18;100.00
21236;BME280;10775;42.678;26.324;2023-01-29T05:10:58;98987.03;;;2.18;100.00
21236;BME280;10775;42.678;26.324;2023-01-29T05:13:25;98989.63;;;2.18;100.00
21236;BME280;10775;42.678;26.324;2023-01-29T05:16:18;98989.59;;;2.17;100.00
21236;BME280;10775;42.678;26.324;2023-01-29T05:18:45;98992.25;;;2.20;100.00
21236;BME280;10775;42.678;26.324;2023-01-29T05:21:11;98996.38;;;2.12;100.00
21236;BME280;10775;42.678;26.324;2023-01-29T05:23:37;99002.19;;;2.02;100.00
21236;BME280;10775;42.678;26.324;2023-01-29T05:26:03;98997.75;;;1.93;100.00
21236;BME280;10775;42.678;26.324;2023-01-29T05:28:29;99000.34;;;1.94;100.00
21236;BME280;10775;42.678;26.324;2023-01-29T05:30:55;99000.34;;;1.94;100.00
21236;BME280;10775;42.678;26.324;2023-01-29T05:33:27;99003.75;;;1.93;100.00
21236;BME280;10775;42.678;26.324;2023-01-29T05:35:53;99008.06;;;1.93;100.00
21236;BME280;10775;42.678;26.324;2023-01-29T05:38:21;99007.34;;;2.00;100.00
21236;BME280;10775;42.678;26.324;2023-01-29T05:40:47;99007.19;;;1.94;100.00
21236;BME280;10775;42.678;26.324;2023-01-29T05:43:21;99016.69;;;1.95;100.00
21236;BME280;10775;42.678;26.324;2023-01-29T05:45:55;99010.44;;;1.84;100.00
21236;BME280;10775;42.678;26.324;2023-01-29T05:48:21;99014.50;;;1.72;100.00
21236;BME280;10775;42.678;26.324;2023-01-29T05:50:47;99013.00;;;1.84;100.00
21236;BME280;10775;42.678;26.324;2023-01-29T05:53:13;99021.66;;;1.86;100.00
21236;BME280;10775;42.678;26.324;2023-01-29T05:55:38;99029.53;;;1.92;100.00
21236;BME280;10775;42.678;26.324;2023-01-29T05:58:04;99032.13;;;1.92;100.00
21236;BME280;10775;42.678;26.324;2023-01-29T06:00:30;99033.59;;;1.81;100.00
21236;BME280;10775;42.678;26.324;2023-01-29T06:02:57;99038.47;;;1.68;100.00
21236;BME280;10775;42.678;26.324;2023-01-29T06:05:23;99040.34;;;1.76;100.00
21236;BME280;10775;42.678;26.324;2023-01-29T06:07:48;99047.97;;;1.69;100.00
21236;BME280;10775;42.678;26.324;2023-01-29T06:10:15;99047.97;;;1.69;100.00
21236;BME280;10775;42.678;26.324;2023-01-29T06:12:42;99045.63;;;1.80;100.00
21236;BME280;10775;42.678;26.324;2023-01-29T06:15:09;99047.22;;;1.75;100.00
21236;BME280;10775;42.678;26.324;2023-01-29T06:17:35;99055.75;;;1.72;100.00
21236;BME280;10775;42.678;26.324;2023-01-29T06:20:01;99066.19;;;1.79;100.00
21236;BME280;10775;42.678;26.324;2023-01-29T06:22:26;99063.59;;;1.77;100.00
21236;BME280;10775;42.678;26.324;2023-01-29T06:24:52;99062.06;;;1.85;100.00
21236;BME280;10775;42.678;26.324;2023-01-29T06:27:18;99062.22;;;1.93;100.00
21236;BME280;10775;42.678;26.324;2023-01-29T06:29:43;99063.94;;;1.92;100.00
21236;BME280;10775;42.678;26.324;2023-01-29T06:32:09;99066.50;;;1.92;100.00
21236;BME280;10775;42.678;26.324;2023-01-29T06:34:34;99081.03;;;1.89;100.00
21236;BME280;10775;42.678;26.324;2023-01-29T06:37:00;99081.81;;;1.85;100.00
21236;BME280;10775;42.678;26.324;2023-01-29T06:39:26;99080.97;;;1.86;100.00
21236;BME280;10775;42.678;26.324;2023-01-29T06:41:51;99088.91;;;1.95;100.00
21236;BME280;10775;42.678;26.324;2023-01-29T06:44:17;99090.63;;;1.96;100.00
21236;BME280;10775;42.678;26.324;2023-01-29T06:46:43;99089.00;;;2.00;100.00
21236;BME280;10775;42.678;26.324;2023-01-29T06:49:08;99095.84;;;1.99;100.00
21236;BME280;10775;42.678;26.324;2023-01-29T06:51:34;99095.53;;;1.84;100.00
21236;BME280;10775;42.678;26.324;2023-01-29T06:53:59;99095.53;;;1.84;100.00
21236;BME280;10775;42.678;26.324;2023-01-29T06:56:25;99092.81;;;1.78;100.00
21236;BME280;10775;42.678;26.324;2023-01-29T06:58:51;99090.47;;;1.87;100.00
21236;BME280;10775;42.678;26.324;2023-01-29T07:01:16;99095.31;;;1.73;100.00
21236;BME280;10775;42.678;26.324;2023-01-29T07:03:42;99093.69;;;1.77;100.00
21236;BME280;10775;42.678;26.324;2023-01-29T07:06:08;99095.00;;;1.59;100.00
21236;BME280;10775;42.678;26.324;2023-01-29T07:08:38;99095.19;;;1.68;100.00
21236;BME280;10775;42.678;26.324;2023-01-29T07:11:04;99098.75;;;1.73;100.00
21236;BME280;10775;42.678;26.324;2023-01-29T07:13:30;99103.16;;;1.78;100.00
21236;BME280;10775;42.678;26.324;2023-01-29T07:15:59;99104.38;;;1.95;100.00
21236;BME280;10775;42.678;26.324;2023-01-29T07:18:26;99100.78;;;1.87;100.00
21236;BME280;10775;42.678;26.324;2023-01-29T07:20:52;99106.69;;;1.83;100.00
21236;BME280;10775;42.678;26.324;2023-01-29T07:23:18;99099.00;;;1.86;100.00
21236;BME280;10775;42.678;26.324;2023-01-29T07:25:44;99107.72;;;1.91;100.00
21236;BME280;10775;42.678;26.324;2023-01-29T07:28:09;99110.81;;;1.74;100.00
21236;BME280;10775;42.678;26.324;2023-01-29T07:30:35;99112.66;;;1.80;100.00
21236;BME280;10775;42.678;26.324;2023-01-29T07:33:05;99112.88;;;1.89;100.00
21236;BME280;10775;42.678;26.324;2023-01-29T07:35:36;99114.47;;;1.84;100.00
21236;BME280;10775;42.678;26.324;2023-01-29T07:38:02;99116.09;;;1.81;100.00
21236;BME280;10775;42.678;26.324;2023-01-29T07:40:27;99115.34;;;1.86;100.00
21236;BME280;10775;42.678;26.324;2023-01-29T07:43:00;99117.28;;;1.95;100.00
21236;BME280;10775;42.678;26.324;2023-01-29T07:45:27;99111.09;;;1.87;100.00
21236;BME280;10775;42.678;26.324;2023-01-29T07:47:54;99121.41;;;1.88;100.00
21236;BME280;10775;42.678;26.324;2023-01-29T07:50:21;99123.25;;;1.92;100.00
21236;BME280;10775;42.678;26.324;2023-01-29T07:52:47;99122.38;;;1.92;100.00
21236;BME280;10775;42.678;26.324;2023-01-29T07:55:12;99124.00;;;1.88;100.00
21236;BME280;10775;42.678;26.324;2023-01-29T07:57:38;99130.16;;;1.95;100.00
21236;BME280;10775;42.678;26.324;2023-01-29T08:00:04;99127.53;;;1.92;100.00
21236;BME280;10775;42.678;26.324;2023-01-29T08:02:30;99129.16;;;1.87;100.00
21236;BME280;10775;42.678;26.324;2023-01-29T08:04:55;99130.81;;;1.86;100.00
21236;BME280;10775;42.678;26.324;2023-01-29T08:07:21;99130.81;;;1.85;100.00
21236;BME280;10775;42.678;26.324;2023-01-29T08:09:46;99130.22;;;1.98;100.00
21236;BME280;10775;42.678;26.324;2023-01-29T08:12:12;99134.63;;;2.02;100.00
21236;BME280;10775;42.678;26.324;2023-01-29T08:14:39;99136.34;;;2.03;100.00
21236;BME280;10775;42.678;26.324;2023-01-29T08:17:04;99139.69;;;1.98;100.00
21236;BME280;10775;42.678;26.324;2023-01-29T08:19:30;99135.13;;;1.86;100.00
21236;BME280;10775;42.678;26.324;2023-01-29T08:21:55;99140.28;;;1.86;100.00
21236;BME280;10775;42.678;26.324;2023-01-29T08:24:21;99148.28;;;1.98;100.00
21236;BME280;10775;42.678;26.324;2023-01-29T08:26:47;99146.63;;;2.00;100.00
21236;BME280;10775;42.678;26.324;2023-01-29T08:29:12;99149.31;;;2.06;100.00
21236;BME280;10775;42.678;26.324;2023-01-29T08:31:38;99144.97;;;2.04;100.00
21236;BME280;10775;42.678;26.324;2023-01-29T08:34:03;99156.41;;;2.16;100.00
21236;BME280;10775;42.678;26.324;2023-01-29T08:36:29;99156.34;;;2.13;100.00
21236;BME280;10775;42.678;26.324;2023-01-29T08:38:55;99149.38;;;2.09;100.00
21236;BME280;10775;42.678;26.324;2023-01-29T08:41:20;99159.63;;;2.06;100.00
21236;BME280;10775;42.678;26.324;2023-01-29T08:43:46;99165.88;;;2.16;100.00
21236;BME280;10775;42.678;26.324;2023-01-29T08:46:11;99160.50;;;2.07;100.00
21236;BME280;10775;42.678;26.324;2023-01-29T08:48:37;99158.03;;;2.11;100.00
21236;BME280;10775;42.678;26.324;2023-01-29T08:51:03;99157.06;;;2.06;100.00
21236;BME280;10775;42.678;26.324;2023-01-29T08:53:30;99152.84;;;2.10;100.00
21236;BME280;10775;42.678;26.324;2023-01-29T08:55:55;99153.00;;;2.17;100.00
21236;BME280;10775;42.678;26.324;2023-01-29T08:58:21;99159.84;;;2.15;100.00
21236;BME280;10775;42.678;26.324;2023-01-29T09:00:47;99162.44;;;2.17;100.00
21236;BME280;10775;42.678;26.324;2023-01-29T09:03:12;99161.34;;;2.06;100.00
21236;BME280;10775;42.678;26.324;2023-01-29T09:05:39;99169.03;;;2.03;100.00
21236;BME280;10775;42.678;26.324;2023-01-29T09:08:05;99177.47;;;1.95;100.00
21236;BME280;10775;42.678;26.324;2023-01-29T09:10:31;99173.00;;;1.88;100.00
21236;BME280;10775;42.678;26.324;2023-01-29T09:12:57;99162.16;;;2.03;100.00
21236;BME280;10775;42.678;26.324;2023-01-29T09:15:23;99163.19;;;2.11;100.00
21236;BME280;10775;42.678;26.324;2023-01-29T09:17:48;99159.00;;;2.16;100.00
21236;BME280;10775;42.678;26.324;2023-01-29T09:20:14;99159.03;;;2.18;100.00
21236;BME280;10775;42.678;26.324;2023-01-29T09:22:41;99152.81;;;2.08;100.00
21236;BME280;10775;42.678;26.324;2023-01-29T09:25:07;99154.69;;;2.15;100.00
21236;BME280;10775;42.678;26.324;2023-01-29T09:27:32;99154.81;;;2.22;100.00
21236;BME280;10775;42.678;26.324;2023-01-29T09:29:58;99159.78;;;2.12;100.00
21236;BME280;10775;42.678;26.324;2023-01-29T09:32:24;99150.81;;;1.96;100.00
21236;BME280;10775;42.678;26.324;2023-01-29T09:34:49;99147.53;;;2.02;100.00
21236;BME280;10775;42.678;26.324;2023-01-29T09:37:15;99144.84;;;1.99;100.00
21236;BME280;10775;42.678;26.324;2023-01-29T09:39:42;99144.03;;;2.00;100.00
21236;BME280;10775;42.678;26.324;2023-01-29T09:42:30;99146.94;;;2.15;100.00
21236;BME280;10775;42.678;26.324;2023-01-29T09:45:21;99142.75;;;2.21;100.00
21236;BME280;10775;42.678;26.324;2023-01-29T09:47:52;99141.25;;;2.32;100.00
21236;BME280;10775;42.678;26.324;2023-01-29T09:50:39;99139.53;;;2.32;100.00
21236;BME280;10775;42.678;26.324;2023-01-29T09:56:09;99143.66;;;2.24;100.00
21236;BME280;10775;42.678;26.324;2023-01-29T09:58:41;99149.78;;;2.28;100.00
21236;BME280;10775;42.678;26.324;2023-01-29T10:14:55;99125.47;;;2.16;100.00
21236;BME280;10775;42.678;26.324;2023-01-29T10:17:37;99134.09;;;2.18;100.00
21236;BME280;10775;42.678;26.324;2023-01-29T10:25:53;99111.81;;;2.22;100.00
21236;BME280;10775;42.678;26.324;2023-01-29T10:30:55;99106.56;;;2.17;100.00
21236;BME280;10775;42.678;26.324;2023-01-29T10:33:42;99111.28;;;1.96;100.00
21236;BME280;10775;42.678;26.324;2023-01-29T10:36:21;99109.69;;;2.03;100.00
21236;BME280;10775;42.678;26.324;2023-01-29T10:38:49;99103.78;;;2.08;100.00
21236;BME280;10775;42.678;26.324;2023-01-29T10:58:08;99090.28;;;2.22;100.00
21236;BME280;10775;42.678;26.324;2023-01-29T11:00:38;99088.38;;;2.10;100.00
21236;BME280;10775;42.678;26.324;2023-01-29T11:03:25;99082.50;;;2.18;100.00
21236;BME280;10775;42.678;26.324;2023-01-29T11:08:42;99074.88;;;2.25;100.00
21236;BME280;10775;42.678;26.324;2023-01-29T11:11:17;99080.63;;;2.11;100.00
21236;BME280;10775;42.678;26.324;2023-01-29T11:14:02;99084.50;;;1.89;100.00
21236;BME280;10775;42.678;26.324;2023-01-29T11:16:44;99076.28;;;2.07;100.00
21236;BME280;10775;42.678;26.324;2023-01-29T11:19:11;99071.47;;;2.26;100.00
21236;BME280;10775;42.678;26.324;2023-01-29T11:24:15;99067.22;;;2.29;100.00
21236;BME280;10775;42.678;26.324;2023-01-29T11:26:43;99068.16;;;2.33;100.00
21236;BME280;10775;42.678;26.324;2023-01-29T11:29:38;99063.06;;;2.36;100.00
21236;BME280;10775;42.678;26.324;2023-01-29T11:32:12;99062.72;;;2.17;100.00
21236;BME280;10775;42.678;26.324;2023-01-29T11:34:56;99049.28;;;2.35;100.00
21236;BME280;10775;42.678;26.324;2023-01-29T11:37:22;99049.50;;;2.48;100.00
21236;BME280;10775;42.678;26.324;2023-01-29T11:39:48;99050.44;;;2.51;100.00
21236;BME280;10775;42.678;26.324;2023-01-29T11:42:23;99053.16;;;2.60;100.00
21236;BME280;10775;42.678;26.324;2023-01-29T11:44:51;99049.09;;;2.72;100.00
21236;BME280;10775;42.678;26.324;2023-01-29T11:47:28;99047.50;;;2.80;100.00
21236;BME280;10775;42.678;26.324;2023-01-29T11:49:56;99043.59;;;2.53;100.00
21236;BME280;10775;42.678;26.324;2023-01-29T11:52:42;99048.81;;;2.56;100.00
21236;BME280;10775;42.678;26.324;2023-01-29T11:55:15;99048.59;;;2.44;100.00
21236;BME280;10775;42.678;26.324;2023-01-29T11:57:45;99043.47;;;2.47;100.00
21236;BME280;10775;42.678;26.324;2023-01-29T12:00:20;99042.03;;;2.61;100.00
21236;BME280;10775;42.678;26.324;2023-01-29T12:02:53;99042.91;;;2.64;100.00
21236;BME280;10775;42.678;26.324;2023-01-29T12:05:22;99035.53;;;2.36;100.00
21236;BME280;10775;42.678;26.324;2023-01-29T12:07:50;99033.72;;;2.31;100.00
21236;BME280;10775;42.678;26.324;2023-01-29T12:15:40;99028.81;;;2.45;100.00
21236;BME280;10775;42.678;26.324;2023-01-29T12:18:29;99036.50;;;2.42;100.00
21236;BME280;10775;42.678;26.324;2023-01-29T12:21:16;99027.97;;;2.47;100.00
21236;BME280;10775;42.678;26.324;2023-01-29T12:26:23;99035.31;;;2.73;100.00
21236;BME280;10775;42.678;26.324;2023-01-29T12:34:34;99036.31;;;2.79;100.00
21236;BME280;10775;42.678;26.324;2023-01-29T12:37:22;99031.88;;;2.72;100.00
21236;BME280;10775;42.678;26.324;2023-01-29T12:39:50;99036.16;;;2.72;100.00
21236;BME280;10775;42.678;26.324;2023-01-29T12:42:20;99036.53;;;2.43;100.00
21236;BME280;10775;42.678;26.324;2023-01-29T12:45:00;99035.72;;;2.46;100.00
21236;BME280;10775;42.678;26.324;2023-01-29T12:47:58;99034.19;;;2.57;100.00
21236;BME280;10775;42.678;26.324;2023-01-29T12:50:34;99035.94;;;2.59;100.00
21236;BME280;10775;42.678;26.324;2023-01-29T12:53:06;99038.44;;;2.53;100.00
21236;BME280;10775;42.678;26.324;2023-01-29T12:58:40;99027.25;;;2.54;100.00
21236;BME280;10775;42.678;26.324;2023-01-29T13:01:11;99036.81;;;2.58;100.00
21236;BME280;10775;42.678;26.324;2023-01-29T13:03:52;99048.81;;;2.56;100.00
21236;BME280;10775;42.678;26.324;2023-01-29T13:06:26;99037.53;;;2.53;100.00
21236;BME280;10775;42.678;26.324;2023-01-29T13:09:05;99036.81;;;2.60;100.00
21236;BME280;10775;42.678;26.324;2023-01-29T13:11:40;99039.38;;;2.58;100.00
21236;BME280;10775;42.678;26.324;2023-01-29T13:14:25;99038.63;;;2.64;100.00
21236;BME280;10775;42.678;26.324;2023-01-29T13:19:48;99038.63;;;2.66;100.00
21236;BME280;10775;42.678;26.324;2023-01-29T13:22:35;99037.00;;;2.71;100.00
21236;BME280;10775;42.678;26.324;2023-01-29T13:25:03;99045.47;;;2.62;100.00
21236;BME280;10775;42.678;26.324;2023-01-29T13:27:31;99047.72;;;2.45;100.00
21236;BME280;10775;42.678;26.324;2023-01-29T13:29:58;99047.25;;;2.17;100.00
21236;BME280;10775;42.678;26.324;2023-01-29T13:32:31;99047.94;;;2.10;100.00
21236;BME280;10775;42.678;26.324;2023-01-29T13:35:04;99049.78;;;2.16;100.00
21236;BME280;10775;42.678;26.324;2023-01-29T13:37:33;99043.91;;;2.23;100.00
21236;BME280;10775;42.678;26.324;2023-01-29T13:40:02;99044.56;;;2.14;100.00
21236;BME280;10775;42.678;26.324;2023-01-29T13:42:47;99040.91;;;2.03;100.00
21236;BME280;10775;42.678;26.324;2023-01-29T13:48:25;99045.78;;;2.32;100.00
21236;BME280;10775;42.678;26.324;2023-01-29T13:50:53;99039.94;;;2.41;100.00
21236;BME280;10775;42.678;26.324;2023-01-29T13:53:40;99039.06;;;2.42;100.00
21236;BME280;10775;42.678;26.324;2023-01-29T13:59:02;99056.13;;;2.35;100.00
21236;BME280;10775;42.678;26.324;2023-01-29T14:04:25;99052.59;;;2.28;100.00
21236;BME280;10775;42.678;26.324;2023-01-29T14:06:57;99058.66;;;2.30;100.00
21236;BME280;10775;42.678;26.324;2023-01-29T14:17:18;99058.38;;;2.15;100.00
21236;BME280;10775;42.678;26.324;2023-01-29T14:20:15;99062.63;;;2.13;100.00
21236;BME280;10775;42.678;26.324;2023-01-29T14:22:42;99065.69;;;1.95;100.00
21236;BME280;10775;42.678;26.324;2023-01-29T14:25:16;99059.75;;;1.99;100.00
21236;BME280;10775;42.678;26.324;2023-01-29T14:27:47;99061.56;;;2.03;100.00
21236;BME280;10775;42.678;26.324;2023-01-29T14:30:16;99060.94;;;2.15;100.00
21236;BME280;10775;42.678;26.324;2023-01-29T14:32:47;99064.41;;;2.17;100.00
21236;BME280;10775;42.678;26.324;2023-01-29T14:35:23;99067.63;;;2.05;100.00
21236;BME280;10775;42.678;26.324;2023-01-29T14:37:55;99067.56;;;2.02;100.00
21236;BME280;10775;42.678;26.324;2023-01-29T14:40:24;99076.13;;;2.00;100.00
21236;BME280;10775;42.678;26.324;2023-01-29T14:43:02;99075.25;;;2.01;100.00
21236;BME280;10775;42.678;26.324;2023-01-29T14:45:33;99071.84;;;2.02;100.00
21236;BME280;10775;42.678;26.324;2023-01-29T14:55:42;99081.53;;;1.72;100.00
21236;BME280;10775;42.678;26.324;2023-01-29T14:58:17;99084.44;;;1.88;100.00
21236;BME280;10775;42.678;26.324;2023-01-29T15:00:45;99084.00;;;2.07;100.00
21236;BME280;10775;42.678;26.324;2023-01-29T15:03:49;99079.50;;;1.97;100.00
21236;BME280;10775;42.678;26.324;2023-01-29T15:06:32;99084.66;;;1.97;100.00
21236;BME280;10775;42.678;26.324;2023-01-29T15:17:39;99092.06;;;2.23;100.00
21236;BME280;10775;42.678;26.324;2023-01-29T15:20:30;99099.84;;;2.26;100.00
21236;BME280;10775;42.678;26.324;2023-01-29T15:22:56;99102.38;;;2.23;100.00
21236;BME280;10775;42.678;26.324;2023-01-29T15:25:22;99102.44;;;2.26;100.00
21236;BME280;10775;42.678;26.324;2023-01-29T15:27:48;99106.63;;;2.22;100.00
21236;BME280;10775;42.678;26.324;2023-01-29T15:30:17;99109.06;;;2.13;100.00
21236;BME280;10775;42.678;26.324;2023-01-29T15:32:45;99119.28;;;2.08;100.00